Jefferson, Jackson County Airport (KJCA)

NameJackson County Airport
CityJefferson
CountryUnited States
ICAOKJCA
IATA
Altitude290 m
CoordinatesGoogle Map
Live Air TrafficLiveATC.net
METARKJCA 101255Z AUTO 00000KT 3SM OVC026 04/04 A3005 RMK AO2 PWINO T00370035
2018-12-10 12:55:00 Wind: North (0°) 0 m/s - Visibility: 4828.02 m - Temperature: 4 °C - Dew point: 4 °C - Humidity: 100% - Pressure: 1017.61 hPa

Sorry, no flights used the airport in this database.